sensor_id;sensor_type;location;lat;lon;timestamp;P1;durP1;ratioP1;P2;durP2;ratioP2
6667;SDS011;3370;47.712;9.082;2023-03-24T00:01:02;6.77;;;5.80;;
6667;SDS011;3370;47.712;9.082;2023-03-24T00:03:29;6.20;;;5.60;;
6667;SDS011;3370;47.712;9.082;2023-03-24T00:05:57;8.17;;;6.10;;
6667;SDS011;3370;47.712;9.082;2023-03-24T00:08:29;6.63;;;5.83;;
6667;SDS011;3370;47.712;9.082;2023-03-24T00:11:06;14.20;;;6.60;;
6667;SDS011;3370;47.712;9.082;2023-03-24T00:13:34;11.27;;;6.40;;
6667;SDS011;3370;47.712;9.082;2023-03-24T00:16:04;9.57;;;6.60;;
6667;SDS011;3370;47.712;9.082;2023-03-24T00:18:36;12.47;;;7.47;;
6667;SDS011;3370;47.712;9.082;2023-03-24T00:21:03;11.87;;;8.47;;
6667;SDS011;3370;47.712;9.082;2023-03-24T00:23:32;10.27;;;8.80;;
6667;SDS011;3370;47.712;9.082;2023-03-24T00:25:59;10.07;;;8.27;;
6667;SDS011;3370;47.712;9.082;2023-03-24T00:28:34;11.33;;;9.00;;
6667;SDS011;3370;47.712;9.082;2023-03-24T00:31:02;14.83;;;8.43;;
6667;SDS011;3370;47.712;9.082;2023-03-24T00:33:30;10.63;;;7.83;;
6667;SDS011;3370;47.712;9.082;2023-03-24T00:35:59;8.67;;;7.87;;
6667;SDS011;3370;47.712;9.082;2023-03-24T00:38:28;10.37;;;8.10;;
6667;SDS011;3370;47.712;9.082;2023-03-24T00:40:54;8.50;;;7.60;;
6667;SDS011;3370;47.712;9.082;2023-03-24T00:43:20;9.27;;;8.37;;
6667;SDS011;3370;47.712;9.082;2023-03-24T00:45:46;10.43;;;7.20;;
6667;SDS011;3370;47.712;9.082;2023-03-24T00:48:12;8.23;;;7.43;;
6667;SDS011;3370;47.712;9.082;2023-03-24T00:50:49;10.20;;;7.67;;
6667;SDS011;3370;47.712;9.082;2023-03-24T00:53:16;9.37;;;7.53;;
6667;SDS011;3370;47.712;9.082;2023-03-24T00:55:44;8.90;;;8.00;;
6667;SDS011;3370;47.712;9.082;2023-03-24T00:58:13;18.70;;;8.00;;
6667;SDS011;3370;47.712;9.082;2023-03-24T01:00:48;8.20;;;7.37;;
6667;SDS011;3370;47.712;9.082;2023-03-24T01:03:21;8.67;;;7.40;;
6667;SDS011;3370;47.712;9.082;2023-03-24T01:05:52;8.40;;;6.53;;
6667;SDS011;3370;47.712;9.082;2023-03-24T01:08:21;11.50;;;7.60;;
6667;SDS011;3370;47.712;9.082;2023-03-24T01:10:50;10.53;;;7.50;;
6667;SDS011;3370;47.712;9.082;2023-03-24T01:13:26;13.53;;;6.70;;
6667;SDS011;3370;47.712;9.082;2023-03-24T01:15:54;10.53;;;7.20;;
6667;SDS011;3370;47.712;9.082;2023-03-24T01:18:20;6.53;;;5.20;;
6667;SDS011;3370;47.712;9.082;2023-03-24T01:20:49;7.27;;;5.80;;
6667;SDS011;3370;47.712;9.082;2023-03-24T01:23:21;5.90;;;5.30;;
6667;SDS011;3370;47.712;9.082;2023-03-24T01:25:49;14.03;;;5.63;;
6667;SDS011;3370;47.712;9.082;2023-03-24T01:28:20;6.50;;;4.90;;
6667;SDS011;3370;47.712;9.082;2023-03-24T01:30:52;9.97;;;6.37;;
6667;SDS011;3370;47.712;9.082;2023-03-24T01:33:19;10.00;;;5.47;;
6667;SDS011;3370;47.712;9.082;2023-03-24T01:35:45;5.80;;;5.20;;
6667;SDS011;3370;47.712;9.082;2023-03-24T01:38:11;8.20;;;5.57;;
6667;SDS011;3370;47.712;9.082;2023-03-24T01:40:40;8.30;;;4.53;;
6667;SDS011;3370;47.712;9.082;2023-03-24T01:43:15;5.00;;;4.50;;
6667;SDS011;3370;47.712;9.082;2023-03-24T01:48:34;7.07;;;5.00;;
6667;SDS011;3370;47.712;9.082;2023-03-24T01:53:53;5.50;;;5.00;;
6667;SDS011;3370;47.712;9.082;2023-03-24T01:56:25;7.30;;;5.63;;
6667;SDS011;3370;47.712;9.082;2023-03-24T01:58:56;5.87;;;5.30;;
6667;SDS011;3370;47.712;9.082;2023-03-24T02:01:25;6.30;;;5.30;;
6667;SDS011;3370;47.712;9.082;2023-03-24T02:03:56;5.93;;;5.10;;
6667;SDS011;3370;47.712;9.082;2023-03-24T02:06:24;7.10;;;4.97;;
6667;SDS011;3370;47.712;9.082;2023-03-24T02:08:53;7.90;;;4.60;;
6667;SDS011;3370;47.712;9.082;2023-03-24T02:11:23;5.17;;;4.67;;
6667;SDS011;3370;47.712;9.082;2023-03-24T02:13:55;5.17;;;4.63;;
6667;SDS011;3370;47.712;9.082;2023-03-24T02:23:04;5.53;;;4.80;;
6667;SDS011;3370;47.712;9.082;2023-03-24T02:46:26;5.90;;;5.40;;
6667;SDS011;3370;47.712;9.082;2023-03-24T02:49:06;6.90;;;6.20;;
6667;SDS011;3370;47.712;9.082;2023-03-24T02:52:07;9.20;;;6.40;;
6667;SDS011;3370;47.712;9.082;2023-03-24T02:55:43;9.40;;;5.90;;
6667;SDS011;3370;47.712;9.082;2023-03-24T02:58:17;6.67;;;5.53;;
6667;SDS011;3370;47.712;9.082;2023-03-24T03:03:57;8.30;;;7.50;;
6667;SDS011;3370;47.712;9.082;2023-03-24T03:06:49;7.60;;;5.90;;
6667;SDS011;3370;47.712;9.082;2023-03-24T03:09:20;7.70;;;6.40;;
6667;SDS011;3370;47.712;9.082;2023-03-24T03:11:48;7.33;;;5.93;;
6667;SDS011;3370;47.712;9.082;2023-03-24T03:14:27;9.50;;;6.47;;
6667;SDS011;3370;47.712;9.082;2023-03-24T03:17:20;9.80;;;6.30;;
6667;SDS011;3370;47.712;9.082;2023-03-24T03:20:04;8.50;;;6.40;;
6667;SDS011;3370;47.712;9.082;2023-03-24T03:22:45;6.70;;;6.00;;
6667;SDS011;3370;47.712;9.082;2023-03-24T03:25:23;6.50;;;5.80;;
6667;SDS011;3370;47.712;9.082;2023-03-24T03:27:56;8.90;;;6.07;;
6667;SDS011;3370;47.712;9.082;2023-03-24T03:30:46;13.73;;;7.20;;
6667;SDS011;3370;47.712;9.082;2023-03-24T03:33:22;8.97;;;6.37;;
6667;SDS011;3370;47.712;9.082;2023-03-24T03:36:03;8.40;;;6.83;;
6667;SDS011;3370;47.712;9.082;2023-03-24T03:39:07;5.70;;;5.20;;
6667;SDS011;3370;47.712;9.082;2023-03-24T03:41:40;7.37;;;6.63;;
6667;SDS011;3370;47.712;9.082;2023-03-24T03:44:07;9.80;;;6.40;;
6667;SDS011;3370;47.712;9.082;2023-03-24T03:46:34;6.70;;;6.10;;
6667;SDS011;3370;47.712;9.082;2023-03-24T03:49:01;6.17;;;5.57;;
6667;SDS011;3370;47.712;9.082;2023-03-24T03:51:28;7.27;;;6.47;;
6667;SDS011;3370;47.712;9.082;2023-03-24T03:53:57;7.43;;;6.40;;
6667;SDS011;3370;47.712;9.082;2023-03-24T03:56:29;9.20;;;6.80;;
6667;SDS011;3370;47.712;9.082;2023-03-24T03:58:57;12.33;;;8.37;;
6667;SDS011;3370;47.712;9.082;2023-03-24T04:01:24;12.07;;;6.73;;
6667;SDS011;3370;47.712;9.082;2023-03-24T04:15:22;7.40;;;6.57;;
6667;SDS011;3370;47.712;9.082;2023-03-24T04:26:53;10.03;;;7.03;;
6667;SDS011;3370;47.712;9.082;2023-03-24T04:29:37;6.93;;;6.23;;
6667;SDS011;3370;47.712;9.082;2023-03-24T04:35:12;7.40;;;6.70;;
6667;SDS011;3370;47.712;9.082;2023-03-24T04:38:02;7.60;;;6.87;;
6667;SDS011;3370;47.712;9.082;2023-03-24T04:40:41;12.70;;;7.50;;
6667;SDS011;3370;47.712;9.082;2023-03-24T04:43:14;7.57;;;6.80;;
6667;SDS011;3370;47.712;9.082;2023-03-24T04:45:43;9.37;;;7.07;;
6667;SDS011;3370;47.712;9.082;2023-03-24T04:48:13;12.67;;;7.33;;
6667;SDS011;3370;47.712;9.082;2023-03-24T04:50:52;10.13;;;7.07;;
6667;SDS011;3370;47.712;9.082;2023-03-24T04:53:27;10.00;;;6.53;;
6667;SDS011;3370;47.712;9.082;2023-03-24T04:58:55;9.80;;;7.07;;
6667;SDS011;3370;47.712;9.082;2023-03-24T05:01:22;12.73;;;8.93;;
6667;SDS011;3370;47.712;9.082;2023-03-24T05:03:54;14.37;;;8.50;;
6667;SDS011;3370;47.712;9.082;2023-03-24T05:06:23;10.90;;;8.20;;
6667;SDS011;3370;47.712;9.082;2023-03-24T05:08:50;13.63;;;9.57;;
6667;SDS011;3370;47.712;9.082;2023-03-24T05:11:17;12.00;;;10.03;;
6667;SDS011;3370;47.712;9.082;2023-03-24T05:13:44;14.37;;;10.40;;
6667;SDS011;3370;47.712;9.082;2023-03-24T05:16:12;12.63;;;10.37;;
6667;SDS011;3370;47.712;9.082;2023-03-24T05:18:38;16.27;;;11.10;;
6667;SDS011;3370;47.712;9.082;2023-03-24T05:21:04;13.33;;;11.53;;
6667;SDS011;3370;47.712;9.082;2023-03-24T05:23:30;13.43;;;11.00;;
6667;SDS011;3370;47.712;9.082;2023-03-24T05:25:56;11.30;;;10.10;;
6667;SDS011;3370;47.712;9.082;2023-03-24T05:28:22;16.03;;;10.23;;
6667;SDS011;3370;47.712;9.082;2023-03-24T05:30:48;10.53;;;8.63;;
6667;SDS011;3370;47.712;9.082;2023-03-24T05:33:14;14.17;;;9.77;;
6667;SDS011;3370;47.712;9.082;2023-03-24T05:35:40;11.83;;;8.60;;
6667;SDS011;3370;47.712;9.082;2023-03-24T05:38:06;15.93;;;8.73;;
6667;SDS011;3370;47.712;9.082;2023-03-24T05:40:32;16.50;;;8.17;;
6667;SDS011;3370;47.712;9.082;2023-03-24T05:42:57;10.30;;;8.20;;
6667;SDS011;3370;47.712;9.082;2023-03-24T05:45:23;13.10;;;8.00;;
6667;SDS011;3370;47.712;9.082;2023-03-24T05:47:49;8.70;;;7.47;;
6667;SDS011;3370;47.712;9.082;2023-03-24T05:50:16;8.13;;;7.30;;
6667;SDS011;3370;47.712;9.082;2023-03-24T05:52:41;12.57;;;7.27;;
6667;SDS011;3370;47.712;9.082;2023-03-24T05:55:07;9.57;;;7.50;;
6667;SDS011;3370;47.712;9.082;2023-03-24T05:57:34;10.30;;;5.93;;
6667;SDS011;3370;47.712;9.082;2023-03-24T06:00:00;7.30;;;6.60;;
6667;SDS011;3370;47.712;9.082;2023-03-24T06:02:31;7.53;;;6.20;;
6667;SDS011;3370;47.712;9.082;2023-03-24T06:04:58;6.13;;;5.53;;
6667;SDS011;3370;47.712;9.082;2023-03-24T06:07:25;7.20;;;6.30;;
6667;SDS011;3370;47.712;9.082;2023-03-24T06:09:55;8.43;;;6.27;;
6667;SDS011;3370;47.712;9.082;2023-03-24T06:12:22;10.87;;;7.33;;
6667;SDS011;3370;47.712;9.082;2023-03-24T06:14:48;7.07;;;6.40;;
6667;SDS011;3370;47.712;9.082;2023-03-24T06:17:14;10.17;;;7.30;;
6667;SDS011;3370;47.712;9.082;2023-03-24T06:19:40;8.27;;;7.27;;
6667;SDS011;3370;47.712;9.082;2023-03-24T06:22:14;10.63;;;7.33;;
6667;SDS011;3370;47.712;9.082;2023-03-24T06:24:41;8.50;;;7.00;;
6667;SDS011;3370;47.712;9.082;2023-03-24T06:27:09;11.53;;;7.57;;
6667;SDS011;3370;47.712;9.082;2023-03-24T06:29:36;8.77;;;7.30;;
6667;SDS011;3370;47.712;9.082;2023-03-24T06:32:02;12.43;;;8.60;;
6667;SDS011;3370;47.712;9.082;2023-03-24T06:34:29;9.20;;;8.00;;
6667;SDS011;3370;47.712;9.082;2023-03-24T06:36:56;11.07;;;7.83;;
6667;SDS011;3370;47.712;9.082;2023-03-24T06:39:22;8.03;;;6.40;;
6667;SDS011;3370;47.712;9.082;2023-03-24T06:41:48;8.97;;;6.20;;
6667;SDS011;3370;47.712;9.082;2023-03-24T06:44:13;7.03;;;6.10;;
6667;SDS011;3370;47.712;9.082;2023-03-24T06:46:39;6.70;;;6.00;;
6667;SDS011;3370;47.712;9.082;2023-03-24T06:49:05;8.53;;;6.30;;
6667;SDS011;3370;47.712;9.082;2023-03-24T06:51:32;7.07;;;6.40;;
6667;SDS011;3370;47.712;9.082;2023-03-24T06:53:57;9.60;;;8.23;;
6667;SDS011;3370;47.712;9.082;2023-03-24T06:56:23;8.83;;;7.80;;
6667;SDS011;3370;47.712;9.082;2023-03-24T06:58:49;7.70;;;6.90;;
6667;SDS011;3370;47.712;9.082;2023-03-24T07:01:15;7.63;;;6.93;;
6667;SDS011;3370;47.712;9.082;2023-03-24T07:03:41;8.50;;;6.77;;
6667;SDS011;3370;47.712;9.082;2023-03-24T07:06:07;8.17;;;7.37;;
6667;SDS011;3370;47.712;9.082;2023-03-24T07:08:34;10.60;;;8.20;;
6667;SDS011;3370;47.712;9.082;2023-03-24T07:11:00;15.33;;;7.77;;
6667;SDS011;3370;47.712;9.082;2023-03-24T07:13:27;10.93;;;8.10;;
6667;SDS011;3370;47.712;9.082;2023-03-24T07:15:53;13.07;;;8.77;;
6667;SDS011;3370;47.712;9.082;2023-03-24T07:18:19;10.57;;;8.10;;
6667;SDS011;3370;47.712;9.082;2023-03-24T07:20:45;14.77;;;8.10;;
6667;SDS011;3370;47.712;9.082;2023-03-24T07:23:11;10.93;;;8.37;;
6667;SDS011;3370;47.712;9.082;2023-03-24T07:25:38;9.93;;;7.70;;
6667;SDS011;3370;47.712;9.082;2023-03-24T07:28:05;8.40;;;7.10;;
6667;SDS011;3370;47.712;9.082;2023-03-24T07:30:32;6.80;;;6.10;;
6667;SDS011;3370;47.712;9.082;2023-03-24T07:33:00;7.53;;;6.83;;
6667;SDS011;3370;47.712;9.082;2023-03-24T07:35:30;9.60;;;7.40;;
6667;SDS011;3370;47.712;9.082;2023-03-24T07:37:56;8.70;;;6.33;;
6667;SDS011;3370;47.712;9.082;2023-03-24T07:40:26;8.20;;;6.50;;
6667;SDS011;3370;47.712;9.082;2023-03-24T07:42:52;8.50;;;6.80;;
6667;SDS011;3370;47.712;9.082;2023-03-24T07:45:18;8.00;;;6.57;;
6667;SDS011;3370;47.712;9.082;2023-03-24T07:47:44;8.87;;;7.00;;
6667;SDS011;3370;47.712;9.082;2023-03-24T07:50:11;7.50;;;6.73;;
6667;SDS011;3370;47.712;9.082;2023-03-24T07:52:39;7.60;;;6.57;;
6667;SDS011;3370;47.712;9.082;2023-03-24T07:55:08;12.10;;;7.73;;
6667;SDS011;3370;47.712;9.082;2023-03-24T07:57:40;9.10;;;6.27;;
6667;SDS011;3370;47.712;9.082;2023-03-24T08:00:10;7.03;;;6.33;;
6667;SDS011;3370;47.712;9.082;2023-03-24T08:02:40;9.50;;;6.90;;
6667;SDS011;3370;47.712;9.082;2023-03-24T08:05:07;15.90;;;7.50;;
6667;SDS011;3370;47.712;9.082;2023-03-24T08:07:38;9.20;;;7.60;;
6667;SDS011;3370;47.712;9.082;2023-03-24T08:10:12;10.63;;;8.30;;
6667;SDS011;3370;47.712;9.082;2023-03-24T08:12:39;10.00;;;7.13;;
6667;SDS011;3370;47.712;9.082;2023-03-24T08:15:06;11.00;;;6.90;;
6667;SDS011;3370;47.712;9.082;2023-03-24T08:17:34;13.30;;;8.57;;
6667;SDS011;3370;47.712;9.082;2023-03-24T08:20:00;9.00;;;7.50;;
6667;SDS011;3370;47.712;9.082;2023-03-24T08:22:38;9.17;;;7.73;;
6667;SDS011;3370;47.712;9.082;2023-03-24T08:25:07;10.20;;;7.23;;
6667;SDS011;3370;47.712;9.082;2023-03-24T08:27:35;8.40;;;7.13;;
6667;SDS011;3370;47.712;9.082;2023-03-24T08:30:07;8.87;;;7.33;;
6667;SDS011;3370;47.712;9.082;2023-03-24T08:32:34;10.60;;;7.50;;
6667;SDS011;3370;47.712;9.082;2023-03-24T08:35:01;9.73;;;7.20;;
6667;SDS011;3370;47.712;9.082;2023-03-24T08:37:29;8.53;;;6.83;;
6667;SDS011;3370;47.712;9.082;2023-03-24T08:39:55;11.07;;;6.93;;
6667;SDS011;3370;47.712;9.082;2023-03-24T08:42:23;7.17;;;6.33;;
6667;SDS011;3370;47.712;9.082;2023-03-24T08:44:49;10.20;;;6.43;;
6667;SDS011;3370;47.712;9.082;2023-03-24T08:47:16;11.60;;;7.27;;
6667;SDS011;3370;47.712;9.082;2023-03-24T08:49:42;7.73;;;6.97;;
6667;SDS011;3370;47.712;9.082;2023-03-24T08:52:07;8.23;;;6.20;;
6667;SDS011;3370;47.712;9.082;2023-03-24T08:54:33;7.67;;;6.73;;
6667;SDS011;3370;47.712;9.082;2023-03-24T08:57:00;8.20;;;7.07;;
6667;SDS011;3370;47.712;9.082;2023-03-24T08:59:26;8.17;;;7.30;;
6667;SDS011;3370;47.712;9.082;2023-03-24T09:01:52;7.93;;;7.20;;
6667;SDS011;3370;47.712;9.082;2023-03-24T09:04:17;8.60;;;7.60;;
6667;SDS011;3370;47.712;9.082;2023-03-24T09:06:43;10.30;;;7.23;;
6667;SDS011;3370;47.712;9.082;2023-03-24T09:09:09;7.20;;;6.57;;
6667;SDS011;3370;47.712;9.082;2023-03-24T09:11:35;10.57;;;7.17;;
6667;SDS011;3370;47.712;9.082;2023-03-24T09:14:01;8.57;;;6.47;;
6667;SDS011;3370;47.712;9.082;2023-03-24T09:16:27;7.57;;;6.73;;
6667;SDS011;3370;47.712;9.082;2023-03-24T09:18:52;6.73;;;6.03;;
6667;SDS011;3370;47.712;9.082;2023-03-24T09:21:18;12.70;;;6.70;;
6667;SDS011;3370;47.712;9.082;2023-03-24T09:23:45;7.00;;;6.37;;
6667;SDS011;3370;47.712;9.082;2023-03-24T09:26:10;9.00;;;7.03;;
6667;SDS011;3370;47.712;9.082;2023-03-24T09:28:36;8.60;;;6.50;;
6667;SDS011;3370;47.712;9.082;2023-03-24T09:31:03;8.80;;;6.73;;
6667;SDS011;3370;47.712;9.082;2023-03-24T09:33:31;10.53;;;7.60;;
6667;SDS011;3370;47.712;9.082;2023-03-24T09:35:59;10.40;;;7.37;;
6667;SDS011;3370;47.712;9.082;2023-03-24T09:38:26;8.67;;;7.77;;
6667;SDS011;3370;47.712;9.082;2023-03-24T09:40:57;8.03;;;7.23;;
6667;SDS011;3370;47.712;9.082;2023-03-24T09:43:32;12.07;;;9.27;;
6667;SDS011;3370;47.712;9.082;2023-03-24T09:46:10;9.97;;;8.83;;
6667;SDS011;3370;47.712;9.082;2023-03-24T09:48:46;9.00;;;8.10;;
6667;SDS011;3370;47.712;9.082;2023-03-24T09:51:26;12.50;;;9.87;;
6667;SDS011;3370;47.712;9.082;2023-03-24T09:56:41;8.60;;;7.60;;
6667;SDS011;3370;47.712;9.082;2023-03-24T10:01:58;8.30;;;7.50;;
6667;SDS011;3370;47.712;9.082;2023-03-24T10:04:25;9.20;;;8.17;;
6667;SDS011;3370;47.712;9.082;2023-03-24T10:06:57;9.30;;;7.53;;
6667;SDS011;3370;47.712;9.082;2023-03-24T10:09:52;8.47;;;7.63;;
6667;SDS011;3370;47.712;9.082;2023-03-24T10:12:29;11.47;;;7.80;;
6667;SDS011;3370;47.712;9.082;2023-03-24T10:15:06;10.00;;;8.00;;
6667;SDS011;3370;47.712;9.082;2023-03-24T10:20:19;6.73;;;6.03;;
6667;SDS011;3370;47.712;9.082;2023-03-24T10:22:55;10.03;;;5.50;;
6667;SDS011;3370;47.712;9.082;2023-03-24T10:28:38;8.60;;;6.53;;
6667;SDS011;3370;47.712;9.082;2023-03-24T10:31:14;7.47;;;6.10;;
6667;SDS011;3370;47.712;9.082;2023-03-24T10:33:44;9.27;;;6.30;;
6667;SDS011;3370;47.712;9.082;2023-03-24T10:36:12;7.93;;;6.10;;
6667;SDS011;3370;47.712;9.082;2023-03-24T10:38:42;8.07;;;7.27;;
6667;SDS011;3370;47.712;9.082;2023-03-24T10:41:17;8.50;;;7.70;;
6667;SDS011;3370;47.712;9.082;2023-03-24T10:43:45;11.93;;;7.60;;
6667;SDS011;3370;47.712;9.082;2023-03-24T10:46:15;9.73;;;6.87;;
6667;SDS011;3370;47.712;9.082;2023-03-24T10:48:53;9.13;;;6.47;;
6667;SDS011;3370;47.712;9.082;2023-03-24T10:51:42;6.00;;;5.40;;
6667;SDS011;3370;47.712;9.082;2023-03-24T10:54:24;6.00;;;5.30;;
6667;SDS011;3370;47.712;9.082;2023-03-24T10:57:00;8.60;;;5.30;;
6667;SDS011;3370;47.712;9.082;2023-03-24T10:59:31;7.67;;;5.80;;
6667;SDS011;3370;47.712;9.082;2023-03-24T11:04:37;6.87;;;6.27;;
6667;SDS011;3370;47.712;9.082;2023-03-24T11:09:46;7.20;;;5.60;;
6667;SDS011;3370;47.712;9.082;2023-03-24T11:12:40;5.63;;;5.13;;
6667;SDS011;3370;47.712;9.082;2023-03-24T11:15:13;6.60;;;6.00;;
6667;SDS011;3370;47.712;9.082;2023-03-24T11:17:52;5.73;;;5.07;;
6667;SDS011;3370;47.712;9.082;2023-03-24T11:20:30;6.30;;;5.60;;
6667;SDS011;3370;47.712;9.082;2023-03-24T11:23:18;7.47;;;5.83;;
6667;SDS011;3370;47.712;9.082;2023-03-24T11:28:42;7.47;;;5.90;;
6667;SDS011;3370;47.712;9.082;2023-03-24T11:31:26;8.07;;;6.00;;
6667;SDS011;3370;47.712;9.082;2023-03-24T11:34:06;6.13;;;5.53;;
6667;SDS011;3370;47.712;9.082;2023-03-24T11:36:53;7.43;;;5.77;;
6667;SDS011;3370;47.712;9.082;2023-03-24T11:39:35;6.40;;;5.80;;
6667;SDS011;3370;47.712;9.082;2023-03-24T11:47:35;2.50;;;2.40;;
6667;SDS011;3370;47.712;9.082;2023-03-24T12:01:36;4.97;;;3.10;;
6667;SDS011;3370;47.712;9.082;2023-03-24T12:13:15;3.10;;;2.90;;
6667;SDS011;3370;47.712;9.082;2023-03-24T12:33:52;1.20;;;1.20;;
6667;SDS011;3370;47.712;9.082;2023-03-24T12:39:11;1.90;;;1.80;;
6667;SDS011;3370;47.712;9.082;2023-03-24T12:57:01;1.80;;;1.70;;
6667;SDS011;3370;47.712;9.082;2023-03-24T13:05:19;1.70;;;1.60;;
6667;SDS011;3370;47.712;9.082;2023-03-24T13:07:55;1.77;;;1.67;;
6667;SDS011;3370;47.712;9.082;2023-03-24T13:10:29;1.60;;;1.50;;
6667;SDS011;3370;47.712;9.082;2023-03-24T13:13:19;2.50;;;1.50;;
6667;SDS011;3370;47.712;9.082;2023-03-24T13:15:56;1.13;;;1.13;;
6667;SDS011;3370;47.712;9.082;2023-03-24T13:18:36;1.30;;;1.30;;
6667;SDS011;3370;47.712;9.082;2023-03-24T13:21:10;1.73;;;1.47;;
6667;SDS011;3370;47.712;9.082;2023-03-24T13:26:24;2.67;;;1.63;;
6667;SDS011;3370;47.712;9.082;2023-03-24T13:32:48;1.40;;;1.30;;
6667;SDS011;3370;47.712;9.082;2023-03-24T13:38:40;1.33;;;1.33;;
6667;SDS011;3370;47.712;9.082;2023-03-24T13:41:18;2.27;;;1.57;;
6667;SDS011;3370;47.712;9.082;2023-03-24T13:44:08;1.70;;;1.60;;
6667;SDS011;3370;47.712;9.082;2023-03-24T13:46:58;1.37;;;1.27;;
6667;SDS011;3370;47.712;9.082;2023-03-24T13:49:42;1.30;;;1.30;;
6667;SDS011;3370;47.712;9.082;2023-03-24T13:52:33;2.67;;;1.20;;
6667;SDS011;3370;47.712;9.082;2023-03-24T13:55:08;2.00;;;1.27;;
6667;SDS011;3370;47.712;9.082;2023-03-24T13:57:51;1.43;;;1.13;;
6667;SDS011;3370;47.712;9.082;2023-03-24T14:00:26;1.73;;;1.20;;
6667;SDS011;3370;47.712;9.082;2023-03-24T14:02:53;6.93;;;1.53;;
6667;SDS011;3370;47.712;9.082;2023-03-24T14:08:09;2.60;;;1.40;;
6667;SDS011;3370;47.712;9.082;2023-03-24T14:10:44;1.53;;;1.43;;
6667;SDS011;3370;47.712;9.082;2023-03-24T14:28:50;1.60;;;1.50;;
6667;SDS011;3370;47.712;9.082;2023-03-24T14:36:30;2.40;;;1.27;;
6667;SDS011;3370;47.712;9.082;2023-03-24T14:39:06;1.23;;;1.23;;
6667;SDS011;3370;47.712;9.082;2023-03-24T14:41:51;1.20;;;1.10;;
6667;SDS011;3370;47.712;9.082;2023-03-24T14:47:08;1.10;;;1.00;;
6667;SDS011;3370;47.712;9.082;2023-03-24T14:49:35;1.43;;;1.10;;
6667;SDS011;3370;47.712;9.082;2023-03-24T14:52:14;1.13;;;1.13;;
6667;SDS011;3370;47.712;9.082;2023-03-24T14:54:45;1.10;;;1.10;;
6667;SDS011;3370;47.712;9.082;2023-03-24T14:57:25;2.10;;;1.70;;
6667;SDS011;3370;47.712;9.082;2023-03-24T15:02:47;1.83;;;1.73;;
6667;SDS011;3370;47.712;9.082;2023-03-24T15:13:39;1.23;;;1.20;;
6667;SDS011;3370;47.712;9.082;2023-03-24T15:16:15;1.20;;;1.13;;
6667;SDS011;3370;47.712;9.082;2023-03-24T15:18:48;2.37;;;1.80;;
6667;SDS011;3370;47.712;9.082;2023-03-24T15:21:22;1.53;;;1.30;;
6667;SDS011;3370;47.712;9.082;2023-03-24T15:23:58;1.30;;;1.30;;
6667;SDS011;3370;47.712;9.082;2023-03-24T15:26:29;1.23;;;1.07;;
6667;SDS011;3370;47.712;9.082;2023-03-24T15:28:56;1.47;;;1.37;;
6667;SDS011;3370;47.712;9.082;2023-03-24T15:31:29;1.30;;;1.30;;
6667;SDS011;3370;47.712;9.082;2023-03-24T15:34:30;1.20;;;1.10;;
6667;SDS011;3370;47.712;9.082;2023-03-24T15:36:57;1.27;;;1.20;;
6667;SDS011;3370;47.712;9.082;2023-03-24T15:39:36;1.43;;;1.43;;
6667;SDS011;3370;47.712;9.082;2023-03-24T15:42:05;1.77;;;1.50;;
6667;SDS011;3370;47.712;9.082;2023-03-24T15:44:45;2.00;;;1.20;;
6667;SDS011;3370;47.712;9.082;2023-03-24T15:47:15;1.20;;;1.20;;
6667;SDS011;3370;47.712;9.082;2023-03-24T15:49:49;3.80;;;1.40;;
6667;SDS011;3370;47.712;9.082;2023-03-24T15:52:31;1.50;;;1.50;;
6667;SDS011;3370;47.712;9.082;2023-03-24T15:57:56;2.00;;;1.33;;
6667;SDS011;3370;47.712;9.082;2023-03-24T16:00:36;1.00;;;1.00;;
6667;SDS011;3370;47.712;9.082;2023-03-24T16:03:05;3.60;;;1.40;;
6667;SDS011;3370;47.712;9.082;2023-03-24T16:05:31;1.73;;;1.40;;
6667;SDS011;3370;47.712;9.082;2023-03-24T16:08:05;1.30;;;1.30;;
6667;SDS011;3370;47.712;9.082;2023-03-24T16:13:22;1.43;;;1.37;;
6667;SDS011;3370;47.712;9.082;2023-03-24T16:15:58;1.20;;;1.20;;
6667;SDS011;3370;47.712;9.082;2023-03-24T16:18:37;1.83;;;1.20;;
6667;SDS011;3370;47.712;9.082;2023-03-24T16:21:10;1.40;;;1.30;;
6667;SDS011;3370;47.712;9.082;2023-03-24T16:23:46;1.37;;;1.30;;
6667;SDS011;3370;47.712;9.082;2023-03-24T16:28:50;1.67;;;1.67;;
6667;SDS011;3370;47.712;9.082;2023-03-24T16:31:20;3.13;;;1.70;;
6667;SDS011;3370;47.712;9.082;2023-03-24T16:33:54;2.17;;;1.70;;
6667;SDS011;3370;47.712;9.082;2023-03-24T16:36:21;1.70;;;1.60;;
6667;SDS011;3370;47.712;9.082;2023-03-24T16:38:50;4.33;;;1.60;;
6667;SDS011;3370;47.712;9.082;2023-03-24T16:41:20;1.50;;;1.40;;
6667;SDS011;3370;47.712;9.082;2023-03-24T16:43:47;1.83;;;1.53;;
6667;SDS011;3370;47.712;9.082;2023-03-24T16:46:16;2.07;;;1.97;;
6667;SDS011;3370;47.712;9.082;2023-03-24T16:48:47;2.17;;;2.00;;
6667;SDS011;3370;47.712;9.082;2023-03-24T16:51:14;1.43;;;1.43;;
6667;SDS011;3370;47.712;9.082;2023-03-24T16:53:41;2.30;;;1.30;;
6667;SDS011;3370;47.712;9.082;2023-03-24T16:56:09;1.60;;;1.50;;
6667;SDS011;3370;47.712;9.082;2023-03-24T16:58:38;1.67;;;1.57;;
6667;SDS011;3370;47.712;9.082;2023-03-24T17:01:18;1.50;;;1.50;;
6667;SDS011;3370;47.712;9.082;2023-03-24T17:03:56;1.60;;;1.50;;
6667;SDS011;3370;47.712;9.082;2023-03-24T17:06:25;2.00;;;1.90;;
6667;SDS011;3370;47.712;9.082;2023-03-24T17:08:53;1.17;;;1.17;;
6667;SDS011;3370;47.712;9.082;2023-03-24T17:11:22;1.37;;;1.30;;
6667;SDS011;3370;47.712;9.082;2023-03-24T17:13:52;2.00;;;1.10;;
6667;SDS011;3370;47.712;9.082;2023-03-24T17:16:18;2.47;;;1.67;;
6667;SDS011;3370;47.712;9.082;2023-03-24T17:18:44;1.40;;;1.30;;
6667;SDS011;3370;47.712;9.082;2023-03-24T17:21:14;4.63;;;1.50;;
6667;SDS011;3370;47.712;9.082;2023-03-24T17:23:43;1.00;;;1.00;;
6667;SDS011;3370;47.712;9.082;2023-03-24T17:26:11;1.40;;;1.27;;
6667;SDS011;3370;47.712;9.082;2023-03-24T17:28:37;1.30;;;1.30;;
6667;SDS011;3370;47.712;9.082;2023-03-24T17:31:04;3.60;;;1.80;;
6667;SDS011;3370;47.712;9.082;2023-03-24T17:33:30;1.50;;;1.40;;
6667;SDS011;3370;47.712;9.082;2023-03-24T17:35:55;2.10;;;1.90;;
6667;SDS011;3370;47.712;9.082;2023-03-24T17:38:21;1.60;;;1.50;;
6667;SDS011;3370;47.712;9.082;2023-03-24T17:40:47;1.70;;;1.60;;
6667;SDS011;3370;47.712;9.082;2023-03-24T17:43:13;7.97;;;6.57;;
6667;SDS011;3370;47.712;9.082;2023-03-24T17:45:39;2.23;;;2.13;;
6667;SDS011;3370;47.712;9.082;2023-03-24T17:48:06;1.67;;;1.40;;
6667;SDS011;3370;47.712;9.082;2023-03-24T17:50:32;1.70;;;1.60;;
6667;SDS011;3370;47.712;9.082;2023-03-24T17:52:57;2.60;;;2.40;;
6667;SDS011;3370;47.712;9.082;2023-03-24T17:55:24;3.37;;;3.07;;
6667;SDS011;3370;47.712;9.082;2023-03-24T17:57:50;1.30;;;1.20;;
6667;SDS011;3370;47.712;9.082;2023-03-24T18:00:16;2.13;;;2.03;;
6667;SDS011;3370;47.712;9.082;2023-03-24T18:02:43;4.87;;;2.40;;
6667;SDS011;3370;47.712;9.082;2023-03-24T18:05:09;2.20;;;1.83;;
6667;SDS011;3370;47.712;9.082;2023-03-24T18:07:37;2.20;;;2.10;;
6667;SDS011;3370;47.712;9.082;2023-03-24T18:10:04;1.77;;;1.67;;
6667;SDS011;3370;47.712;9.082;2023-03-24T18:12:32;1.90;;;1.63;;
6667;SDS011;3370;47.712;9.082;2023-03-24T18:14:58;1.97;;;1.60;;
6667;SDS011;3370;47.712;9.082;2023-03-24T18:17:24;2.03;;;1.93;;
6667;SDS011;3370;47.712;9.082;2023-03-24T18:19:50;3.33;;;2.03;;
6667;SDS011;3370;47.712;9.082;2023-03-24T18:22:16;2.20;;;2.10;;
6667;SDS011;3370;47.712;9.082;2023-03-24T18:24:41;1.97;;;1.90;;
6667;SDS011;3370;47.712;9.082;2023-03-24T18:27:07;2.47;;;1.80;;
6667;SDS011;3370;47.712;9.082;2023-03-24T18:29:36;1.60;;;1.50;;
6667;SDS011;3370;47.712;9.082;2023-03-24T18:32:03;1.43;;;1.43;;
6667;SDS011;3370;47.712;9.082;2023-03-24T18:34:30;2.20;;;2.10;;
6667;SDS011;3370;47.712;9.082;2023-03-24T18:36:56;4.10;;;2.30;;
6667;SDS011;3370;47.712;9.082;2023-03-24T18:39:23;2.60;;;2.40;;
6667;SDS011;3370;47.712;9.082;2023-03-24T18:41:49;2.57;;;2.40;;
6667;SDS011;3370;47.712;9.082;2023-03-24T18:44:15;4.43;;;2.50;;
6667;SDS011;3370;47.712;9.082;2023-03-24T18:46:41;3.17;;;2.90;;
6667;SDS011;3370;47.712;9.082;2023-03-24T18:49:11;5.00;;;3.53;;
6667;SDS011;3370;47.712;9.082;2023-03-24T18:51:38;10.07;;;5.00;;
6667;SDS011;3370;47.712;9.082;2023-03-24T18:54:04;5.73;;;4.40;;
6667;SDS011;3370;47.712;9.082;2023-03-24T18:56:30;4.10;;;3.80;;
6667;SDS011;3370;47.712;9.082;2023-03-24T18:58:56;3.10;;;2.80;;
6667;SDS011;3370;47.712;9.082;2023-03-24T19:01:22;5.33;;;3.97;;